Xin Dan Dong — BPBY — position and weather

sailwx.info

Track history (hours):
 
Tides and Currents Weather Stations Pressure Air Temp Water Temp Dewpoint Dewpoint Depression Visibility Wind Speed Wind Dir Waves Ship Positions

Xin Dan Dong

Last reported at 2017-Nov-29 03:03 UTC. Time now 2017-Dec-13 03:40 UTC.
Position N 25°33' E 120°12'.
Warning: this ship's position is 14 days out of date.

Length 263 m; draft 9 m.

Type: Cargo ship. MMSI: 413153000.

Date/timePositionNaut miles runAvg speedWind from/ knotsBaromVisibWave heightAir tempDewpointWater temp
2017-Nov-29 03:03N 25°33' E 120°12'  
2017-Nov-20 00:25N 22°39' E 113°41'0 0.0
2017-Nov-19 23:59N 22°39' E 113°41'0 0.0
2017-Nov-19 23:28N 22°39' E 113°41'0 0.0
2017-Nov-19 22:58N 22°39' E 113°41'0 0.0
2017-Nov-19 22:28N 22°39' E 113°41'0 0.0
2017-Nov-19 21:58N 22°39' E 113°41'0 0.0
2017-Nov-19 21:28N 22°39' E 113°41'0 0.0
2017-Nov-19 20:58N 22°39' E 113°41'0 0.0
2017-Nov-19 20:28N 22°39' E 113°41'0 0.0
2017-Nov-19 19:58N 22°39' E 113°41'0 0.0
2017-Nov-19 19:28N 22°39' E 113°41'0 0.0
2017-Nov-19 18:58N 22°39' E 113°41'0 0.0
2017-Nov-19 18:28N 22°39' E 113°41'0 0.0
2017-Nov-19 17:58N 22°39' E 113°41'0 0.0
2017-Nov-19 17:28N 22°39' E 113°41'0 0.0
2017-Nov-19 16:58N 22°39' E 113°41'0 0.0
2017-Nov-19 16:28N 22°39' E 113°41'0 0.0
2017-Nov-19 15:55N 22°39' E 113°41'0 0.0
2017-Nov-19 15:28N 22°39' E 113°41'0 0.0
2017-Nov-19 14:55N 22°39' E 113°41'0 0.0
2017-Nov-19 14:28N 22°39' E 113°41'0 0.0
2017-Nov-19 13:58N 22°39' E 113°41'0 0.0
2017-Nov-19 13:28N 22°39' E 113°41'0 0.0
2017-Nov-19 12:58N 22°39' E 113°41'0 0.6
2017-Nov-19 12:30N 22°39' E 113°41'3 6.0
2017-Nov-19 12:00N 22°36' E 113°42'4 7.8
2017-Nov-19 11:30N 22°33' E 113°44'510.3
2017-Nov-19 11:00N 22°28' E 113°45'714.5
2017-Nov-19 10:30N 22°21' E 113°48'714.9
2017-Nov-19 10:00N 22°13' E 113°48'612.6
2017-Nov-19 09:30N 22°07' E 113°48'712.9
2017-Nov-19 09:00N 22°02' E 113°52'510.8
2017-Nov-19 08:30N 21°58' E 113°56'1 2.4
2017-Nov-19 08:01N 21°58' E 113°57'2 2.8
2017-Nov-19 07:28N 21°58' E 113°59'2 3.8
2017-Nov-19 07:00N 21°57' E 114°01'1 2.1
2017-Nov-19 06:31N 21°58' E 114°02'1 2.0
2017-Nov-19 06:00N 21°58' E 114°03'1 2.5
2017-Nov-19 05:30N 21°59' E 114°04'0 0.3
2017-Nov-19 05:00N 21°59' E 114°04'5 9.1
2017-Nov-19 04:27N 21°56' E 114°08'713.1
2017-Nov-19 03:57N 21°55' E 114°15'713.4
2017-Nov-19 03:24N 21°56' E 114°23'  
Track history (hours):
 
Tides and Currents Weather Stations Pressure Air Temp Water Temp Dewpoint Dewpoint Depression Visibility Wind Speed Wind Dir Waves Ship Positions

Xin Dan Dong

Last reported at 2017-Nov-29 03:03 UTC. Time now 2017-Dec-13 03:40 UTC.
Position N 25°33' E 120°12'.
Warning: this ship's position is 14 days out of date.

Length 263 m; draft 9 m.

Type: Cargo ship. MMSI: 413153000.

Date/timePositionNaut miles runAvg speedWind from/ knotsBaromVisibWave heightAir tempDewpointWater temp
2017-Nov-29 03:03N 25°33' E 120°12'  
2017-Nov-20 00:25N 22°39' E 113°41'0 0.0
2017-Nov-19 23:59N 22°39' E 113°41'0 0.0
2017-Nov-19 23:28N 22°39' E 113°41'0 0.0
2017-Nov-19 22:58N 22°39' E 113°41'0 0.0
2017-Nov-19 22:28N 22°39' E 113°41'0 0.0
2017-Nov-19 21:58N 22°39' E 113°41'0 0.0
2017-Nov-19 21:28N 22°39' E 113°41'0 0.0
2017-Nov-19 20:58N 22°39' E 113°41'0 0.0
2017-Nov-19 20:28N 22°39' E 113°41'0 0.0
2017-Nov-19 19:58N 22°39' E 113°41'0 0.0
2017-Nov-19 19:28N 22°39' E 113°41'0 0.0
2017-Nov-19 18:58N 22°39' E 113°41'0 0.0
2017-Nov-19 18:28N 22°39' E 113°41'0 0.0
2017-Nov-19 17:58N 22°39' E 113°41'0 0.0
2017-Nov-19 17:28N 22°39' E 113°41'0 0.0
2017-Nov-19 16:58N 22°39' E 113°41'0 0.0
2017-Nov-19 16:28N 22°39' E 113°41'0 0.0
2017-Nov-19 15:55N 22°39' E 113°41'0 0.0
2017-Nov-19 15:28N 22°39' E 113°41'0 0.0
2017-Nov-19 14:55N 22°39' E 113°41'0 0.0
2017-Nov-19 14:28N 22°39' E 113°41'0 0.0
2017-Nov-19 13:58N 22°39' E 113°41'0 0.0
2017-Nov-19 13:28N 22°39' E 113°41'0 0.0
2017-Nov-19 12:58N 22°39' E 113°41'0 0.6
2017-Nov-19 12:30N 22°39' E 113°41'3 6.0
2017-Nov-19 12:00N 22°36' E 113°42'4 7.8
2017-Nov-19 11:30N 22°33' E 113°44'510.3
2017-Nov-19 11:00N 22°28' E 113°45'714.5
2017-Nov-19 10:30N 22°21' E 113°48'714.9
2017-Nov-19 10:00N 22°13' E 113°48'612.6
2017-Nov-19 09:30N 22°07' E 113°48'712.9
2017-Nov-19 09:00N 22°02' E 113°52'510.8
2017-Nov-19 08:30N 21°58' E 113°56'1 2.4
2017-Nov-19 08:01N 21°58' E 113°57'2 2.8
2017-Nov-19 07:28N 21°58' E 113°59'2 3.8
2017-Nov-19 07:00N 21°57' E 114°01'1 2.1
2017-Nov-19 06:31N 21°58' E 114°02'1 2.0
2017-Nov-19 06:00N 21°58' E 114°03'1 2.5
2017-Nov-19 05:30N 21°59' E 114°04'0 0.3
2017-Nov-19 05:00N 21°59' E 114°04'5 9.1
2017-Nov-19 04:27N 21°56' E 114°08'713.1
2017-Nov-19 03:57N 21°55' E 114°15'713.4
2017-Nov-19 03:24N 21°56' E 114°23'  

Dump ship's entire track history